sensor_id;sensor_type;location;lat;lon;timestamp;P1;durP1;ratioP1;P2;durP2;ratioP2
68757;SDS011;55747;51.998;4.466;2022-10-16T00:01:22;3.00;;;1.50;;
68757;SDS011;55747;51.998;4.466;2022-10-16T00:03:49;3.03;;;1.40;;
68757;SDS011;55747;51.998;4.466;2022-10-16T00:06:15;4.20;;;1.33;;
68757;SDS011;55747;51.998;4.466;2022-10-16T00:08:42;3.08;;;1.30;;
68757;SDS011;55747;51.998;4.466;2022-10-16T00:11:09;4.35;;;1.60;;
68757;SDS011;55747;51.998;4.466;2022-10-16T00:13:36;2.45;;;1.13;;
68757;SDS011;55747;51.998;4.466;2022-10-16T00:16:04;6.40;;;1.17;;
68757;SDS011;55747;51.998;4.466;2022-10-16T00:18:31;2.80;;;1.20;;
68757;SDS011;55747;51.998;4.466;2022-10-16T00:21:01;3.75;;;1.13;;
68757;SDS011;55747;51.998;4.466;2022-10-16T00:23:28;4.80;;;1.10;;
68757;SDS011;55747;51.998;4.466;2022-10-16T00:25:57;3.60;;;1.10;;
68757;SDS011;55747;51.998;4.466;2022-10-16T00:28:24;2.00;;;0.97;;
68757;SDS011;55747;51.998;4.466;2022-10-16T00:30:50;5.05;;;1.08;;
68757;SDS011;55747;51.998;4.466;2022-10-16T00:33:19;2.42;;;0.93;;
68757;SDS011;55747;51.998;4.466;2022-10-16T00:35:44;4.38;;;1.20;;
68757;SDS011;55747;51.998;4.466;2022-10-16T00:38:10;2.78;;;0.80;;
68757;SDS011;55747;51.998;4.466;2022-10-16T00:40:36;2.85;;;1.00;;
68757;SDS011;55747;51.998;4.466;2022-10-16T00:43:02;2.35;;;0.90;;
68757;SDS011;55747;51.998;4.466;2022-10-16T00:45:33;5.40;;;1.13;;
68757;SDS011;55747;51.998;4.466;2022-10-16T00:47:58;2.17;;;0.80;;
68757;SDS011;55747;51.998;4.466;2022-10-16T00:50:27;4.05;;;1.08;;
68757;SDS011;55747;51.998;4.466;2022-10-16T00:52:55;3.40;;;1.10;;
68757;SDS011;55747;51.998;4.466;2022-10-16T00:55:21;1.55;;;1.10;;
68757;SDS011;55747;51.998;4.466;2022-10-16T00:57:48;2.70;;;1.17;;
68757;SDS011;55747;51.998;4.466;2022-10-16T01:00:16;2.58;;;1.33;;
68757;SDS011;55747;51.998;4.466;2022-10-16T01:02:43;3.10;;;1.48;;
68757;SDS011;55747;51.998;4.466;2022-10-16T01:05:09;2.00;;;1.20;;
68757;SDS011;55747;51.998;4.466;2022-10-16T01:13:13;7.15;;;1.60;;
68757;SDS011;55747;51.998;4.466;2022-10-16T01:18:38;4.93;;;1.60;;
68757;SDS011;55747;51.998;4.466;2022-10-16T01:21:08;6.30;;;1.75;;
68757;SDS011;55747;51.998;4.466;2022-10-16T01:29:55;5.47;;;1.70;;
68757;SDS011;55747;51.998;4.466;2022-10-16T01:38:33;3.55;;;1.83;;
68757;SDS011;55747;51.998;4.466;2022-10-16T01:41:24;7.57;;;1.70;;
68757;SDS011;55747;51.998;4.466;2022-10-16T01:44:01;5.32;;;1.80;;
68757;SDS011;55747;51.998;4.466;2022-10-16T01:46:31;2.30;;;1.40;;
68757;SDS011;55747;51.998;4.466;2022-10-16T01:48:58;4.07;;;1.70;;
68757;SDS011;55747;51.998;4.466;2022-10-16T01:51:25;5.07;;;1.60;;
68757;SDS011;55747;51.998;4.466;2022-10-16T01:53:53;3.53;;;1.75;;
68757;SDS011;55747;51.998;4.466;2022-10-16T01:56:22;2.78;;;1.85;;
68757;SDS011;55747;51.998;4.466;2022-10-16T01:59:12;5.03;;;2.00;;
68757;SDS011;55747;51.998;4.466;2022-10-16T02:01:39;2.85;;;1.88;;
68757;SDS011;55747;51.998;4.466;2022-10-16T02:04:29;3.65;;;2.05;;
68757;SDS011;55747;51.998;4.466;2022-10-16T02:06:55;3.88;;;2.05;;
68757;SDS011;55747;51.998;4.466;2022-10-16T02:09:21;3.72;;;1.92;;
68757;SDS011;55747;51.998;4.466;2022-10-16T02:11:46;4.85;;;2.00;;
68757;SDS011;55747;51.998;4.466;2022-10-16T02:14:14;4.53;;;2.33;;
68757;SDS011;55747;51.998;4.466;2022-10-16T02:16:46;6.05;;;2.05;;
68757;SDS011;55747;51.998;4.466;2022-10-16T02:19:14;5.05;;;2.25;;
68757;SDS011;55747;51.998;4.466;2022-10-16T02:24:43;5.30;;;2.20;;
68757;SDS011;55747;51.998;4.466;2022-10-16T02:27:33;4.70;;;1.85;;
68757;SDS011;55747;51.998;4.466;2022-10-16T02:30:14;3.85;;;1.90;;
68757;SDS011;55747;51.998;4.466;2022-10-16T02:32:46;3.78;;;1.92;;
68757;SDS011;55747;51.998;4.466;2022-10-16T02:35:14;4.55;;;2.10;;
68757;SDS011;55747;51.998;4.466;2022-10-16T02:37:43;5.55;;;1.88;;
68757;SDS011;55747;51.998;4.466;2022-10-16T02:40:10;5.55;;;2.25;;
68757;SDS011;55747;51.998;4.466;2022-10-16T02:42:37;4.43;;;1.98;;
68757;SDS011;55747;51.998;4.466;2022-10-16T02:45:04;8.43;;;2.10;;
68757;SDS011;55747;51.998;4.466;2022-10-16T02:47:30;3.97;;;1.83;;
68757;SDS011;55747;51.998;4.466;2022-10-16T02:49:56;3.63;;;1.70;;
68757;SDS011;55747;51.998;4.466;2022-10-16T02:52:21;5.70;;;2.00;;
68757;SDS011;55747;51.998;4.466;2022-10-16T02:54:49;5.00;;;1.80;;
68757;SDS011;55747;51.998;4.466;2022-10-16T02:57:14;4.05;;;1.70;;
68757;SDS011;55747;51.998;4.466;2022-10-16T02:59:40;4.55;;;1.70;;
68757;SDS011;55747;51.998;4.466;2022-10-16T03:02:05;3.50;;;1.63;;
68757;SDS011;55747;51.998;4.466;2022-10-16T03:04:30;10.05;;;2.00;;
68757;SDS011;55747;51.998;4.466;2022-10-16T03:06:56;5.87;;;1.70;;
68757;SDS011;55747;51.998;4.466;2022-10-16T03:09:21;4.20;;;1.77;;
68757;SDS011;55747;51.998;4.466;2022-10-16T03:11:46;2.67;;;1.55;;
68757;SDS011;55747;51.998;4.466;2022-10-16T03:14:15;4.88;;;1.90;;
68757;SDS011;55747;51.998;4.466;2022-10-16T03:16:40;5.03;;;1.80;;
68757;SDS011;55747;51.998;4.466;2022-10-16T03:19:05;4.73;;;1.50;;
68757;SDS011;55747;51.998;4.466;2022-10-16T03:21:31;5.28;;;1.85;;
68757;SDS011;55747;51.998;4.466;2022-10-16T03:23:56;5.53;;;1.83;;
68757;SDS011;55747;51.998;4.466;2022-10-16T03:26:21;5.20;;;1.90;;
68757;SDS011;55747;51.998;4.466;2022-10-16T03:28:47;5.65;;;1.98;;
68757;SDS011;55747;51.998;4.466;2022-10-16T03:31:12;6.63;;;1.90;;
68757;SDS011;55747;51.998;4.466;2022-10-16T03:33:37;4.57;;;1.50;;
68757;SDS011;55747;51.998;4.466;2022-10-16T03:36:03;3.47;;;1.63;;
68757;SDS011;55747;51.998;4.466;2022-10-16T03:38:28;4.57;;;1.40;;
68757;SDS011;55747;51.998;4.466;2022-10-16T03:40:54;5.40;;;1.70;;
68757;SDS011;55747;51.998;4.466;2022-10-16T03:43:19;4.50;;;1.40;;
68757;SDS011;55747;51.998;4.466;2022-10-16T03:45:44;3.37;;;1.50;;
68757;SDS011;55747;51.998;4.466;2022-10-16T03:48:10;3.85;;;1.55;;
68757;SDS011;55747;51.998;4.466;2022-10-16T03:50:35;4.95;;;1.63;;
68757;SDS011;55747;51.998;4.466;2022-10-16T03:53:01;4.75;;;1.33;;
68757;SDS011;55747;51.998;4.466;2022-10-16T03:55:26;5.95;;;1.60;;
68757;SDS011;55747;51.998;4.466;2022-10-16T03:57:51;5.63;;;1.63;;
68757;SDS011;55747;51.998;4.466;2022-10-16T04:00:17;6.75;;;1.73;;
68757;SDS011;55747;51.998;4.466;2022-10-16T04:02:42;4.25;;;1.30;;
68757;SDS011;55747;51.998;4.466;2022-10-16T04:05:07;6.47;;;1.75;;
68757;SDS011;55747;51.998;4.466;2022-10-16T04:07:33;4.18;;;1.50;;
68757;SDS011;55747;51.998;4.466;2022-10-16T04:09:58;3.78;;;1.85;;
68757;SDS011;55747;51.998;4.466;2022-10-16T04:12:24;4.03;;;1.70;;
68757;SDS011;55747;51.998;4.466;2022-10-16T04:14:50;4.20;;;1.67;;
68757;SDS011;55747;51.998;4.466;2022-10-16T04:17:18;4.80;;;1.85;;
68757;SDS011;55747;51.998;4.466;2022-10-16T04:19:43;7.07;;;2.03;;
68757;SDS011;55747;51.998;4.466;2022-10-16T04:22:09;3.72;;;1.63;;
68757;SDS011;55747;51.998;4.466;2022-10-16T04:24:34;3.40;;;1.60;;
68757;SDS011;55747;51.998;4.466;2022-10-16T04:27:02;4.03;;;1.85;;
68757;SDS011;55747;51.998;4.466;2022-10-16T04:29:27;5.32;;;1.75;;
68757;SDS011;55747;51.998;4.466;2022-10-16T04:31:53;4.65;;;1.60;;
68757;SDS011;55747;51.998;4.466;2022-10-16T04:34:18;3.73;;;1.80;;
68757;SDS011;55747;51.998;4.466;2022-10-16T04:36:43;4.82;;;1.50;;
68757;SDS011;55747;51.998;4.466;2022-10-16T04:39:09;8.07;;;1.67;;
68757;SDS011;55747;51.998;4.466;2022-10-16T04:41:34;4.70;;;1.60;;
68757;SDS011;55747;51.998;4.466;2022-10-16T04:43:59;5.27;;;1.87;;
68757;SDS011;55747;51.998;4.466;2022-10-16T04:46:25;6.05;;;1.70;;
68757;SDS011;55747;51.998;4.466;2022-10-16T04:48:50;5.07;;;1.73;;
68757;SDS011;55747;51.998;4.466;2022-10-16T04:51:15;5.65;;;2.08;;
68757;SDS011;55747;51.998;4.466;2022-10-16T04:53:41;3.15;;;1.70;;
68757;SDS011;55747;51.998;4.466;2022-10-16T04:56:06;5.88;;;2.33;;
68757;SDS011;55747;51.998;4.466;2022-10-16T04:58:31;4.70;;;1.80;;
68757;SDS011;55747;51.998;4.466;2022-10-16T05:00:57;6.97;;;1.83;;
68757;SDS011;55747;51.998;4.466;2022-10-16T05:03:25;4.72;;;1.70;;
68757;SDS011;55747;51.998;4.466;2022-10-16T05:05:50;4.97;;;2.10;;
68757;SDS011;55747;51.998;4.466;2022-10-16T05:08:16;6.78;;;1.80;;
68757;SDS011;55747;51.998;4.466;2022-10-16T05:10:42;8.15;;;1.80;;
68757;SDS011;55747;51.998;4.466;2022-10-16T05:13:08;7.53;;;1.88;;
68757;SDS011;55747;51.998;4.466;2022-10-16T05:15:33;4.57;;;1.85;;
68757;SDS011;55747;51.998;4.466;2022-10-16T05:18:01;5.65;;;2.08;;
68757;SDS011;55747;51.998;4.466;2022-10-16T05:20:27;2.88;;;1.65;;
68757;SDS011;55747;51.998;4.466;2022-10-16T05:22:52;7.22;;;2.20;;
68757;SDS011;55747;51.998;4.466;2022-10-16T05:25:17;5.03;;;2.00;;
68757;SDS011;55747;51.998;4.466;2022-10-16T05:27:43;8.05;;;2.10;;
68757;SDS011;55747;51.998;4.466;2022-10-16T05:30:15;6.03;;;2.15;;
68757;SDS011;55747;51.998;4.466;2022-10-16T05:32:41;7.13;;;2.15;;
68757;SDS011;55747;51.998;4.466;2022-10-16T05:35:11;6.78;;;2.42;;
68757;SDS011;55747;51.998;4.466;2022-10-16T05:37:36;9.98;;;2.88;;
68757;SDS011;55747;51.998;4.466;2022-10-16T05:40:02;7.85;;;2.92;;
68757;SDS011;55747;51.998;4.466;2022-10-16T05:42:29;6.85;;;2.42;;
68757;SDS011;55747;51.998;4.466;2022-10-16T05:44:55;5.50;;;2.88;;
68757;SDS011;55747;51.998;4.466;2022-10-16T05:47:20;7.03;;;2.47;;
68757;SDS011;55747;51.998;4.466;2022-10-16T05:49:46;6.97;;;2.30;;
68757;SDS011;55747;51.998;4.466;2022-10-16T05:52:11;4.38;;;2.58;;
68757;SDS011;55747;51.998;4.466;2022-10-16T05:54:36;7.33;;;2.33;;
68757;SDS011;55747;51.998;4.466;2022-10-16T05:57:01;10.07;;;2.97;;
68757;SDS011;55747;51.998;4.466;2022-10-16T05:59:27;8.23;;;2.10;;
68757;SDS011;55747;51.998;4.466;2022-10-16T06:01:52;9.82;;;2.03;;
68757;SDS011;55747;51.998;4.466;2022-10-16T06:04:18;6.75;;;2.10;;
68757;SDS011;55747;51.998;4.466;2022-10-16T06:06:43;6.22;;;1.90;;
68757;SDS011;55747;51.998;4.466;2022-10-16T06:09:14;5.77;;;2.13;;
68757;SDS011;55747;51.998;4.466;2022-10-16T06:11:39;3.53;;;2.10;;
68757;SDS011;55747;51.998;4.466;2022-10-16T06:14:07;7.03;;;1.95;;
68757;SDS011;55747;51.998;4.466;2022-10-16T06:16:34;8.45;;;2.17;;
68757;SDS011;55747;51.998;4.466;2022-10-16T06:19:00;7.75;;;1.83;;
68757;SDS011;55747;51.998;4.466;2022-10-16T06:21:43;12.27;;;2.20;;
68757;SDS011;55747;51.998;4.466;2022-10-16T06:24:11;4.57;;;1.50;;
68757;SDS011;55747;51.998;4.466;2022-10-16T06:26:44;7.93;;;1.77;;
68757;SDS011;55747;51.998;4.466;2022-10-16T06:29:10;5.28;;;1.73;;
68757;SDS011;55747;51.998;4.466;2022-10-16T06:31:35;6.40;;;1.70;;
68757;SDS011;55747;51.998;4.466;2022-10-16T06:34:09;6.32;;;1.63;;
68757;SDS011;55747;51.998;4.466;2022-10-16T07:06:52;6.85;;;1.70;;
68757;SDS011;55747;51.998;4.466;2022-10-16T07:13:41;7.97;;;1.80;;
68757;SDS011;55747;51.998;4.466;2022-10-16T07:16:26;6.55;;;1.83;;
68757;SDS011;55747;51.998;4.466;2022-10-16T07:19:22;8.38;;;2.10;;
68757;SDS011;55747;51.998;4.466;2022-10-16T07:21:52;11.05;;;2.03;;
68757;SDS011;55747;51.998;4.466;2022-10-16T07:24:42;5.70;;;1.98;;
68757;SDS011;55747;51.998;4.466;2022-10-16T07:27:11;9.02;;;2.00;;
68757;SDS011;55747;51.998;4.466;2022-10-16T07:29:39;6.63;;;1.85;;
68757;SDS011;55747;51.998;4.466;2022-10-16T07:32:07;8.70;;;2.10;;
68757;SDS011;55747;51.998;4.466;2022-10-16T07:52:37;7.80;;;1.85;;
68757;SDS011;55747;51.998;4.466;2022-10-16T07:59:25;7.45;;;1.75;;
68757;SDS011;55747;51.998;4.466;2022-10-16T08:06:02;7.82;;;1.85;;
68757;SDS011;55747;51.998;4.466;2022-10-16T08:12:34;8.15;;;2.10;;
68757;SDS011;55747;51.998;4.466;2022-10-16T08:28:44;11.75;;;2.28;;
68757;SDS011;55747;51.998;4.466;2022-10-16T08:31:40;8.82;;;1.80;;
68757;SDS011;55747;51.998;4.466;2022-10-16T08:34:34;6.78;;;1.88;;
68757;SDS011;55747;51.998;4.466;2022-10-16T08:37:23;7.00;;;1.90;;
68757;SDS011;55747;51.998;4.466;2022-10-16T08:48:59;6.18;;;1.70;;
68757;SDS011;55747;51.998;4.466;2022-10-16T08:54:57;7.38;;;1.67;;
68757;SDS011;55747;51.998;4.466;2022-10-16T08:57:26;9.43;;;1.80;;
68757;SDS011;55747;51.998;4.466;2022-10-16T09:00:18;8.10;;;1.92;;
68757;SDS011;55747;51.998;4.466;2022-10-16T09:20:56;9.82;;;1.80;;
68757;SDS011;55747;51.998;4.466;2022-10-16T09:23:38;10.15;;;2.03;;
68757;SDS011;55747;51.998;4.466;2022-10-16T09:26:09;7.70;;;1.67;;
68757;SDS011;55747;51.998;4.466;2022-10-16T09:28:37;9.60;;;1.88;;
68757;SDS011;55747;51.998;4.466;2022-10-16T09:31:10;9.57;;;1.80;;
68757;SDS011;55747;51.998;4.466;2022-10-16T09:33:45;8.35;;;1.90;;
68757;SDS011;55747;51.998;4.466;2022-10-16T09:36:15;13.73;;;1.83;;
68757;SDS011;55747;51.998;4.466;2022-10-16T09:38:41;11.23;;;2.00;;
68757;SDS011;55747;51.998;4.466;2022-10-16T09:41:19;10.82;;;2.00;;
68757;SDS011;55747;51.998;4.466;2022-10-16T09:48:50;8.77;;;1.77;;
68757;SDS011;55747;51.998;4.466;2022-10-16T09:51:21;9.55;;;1.85;;
68757;SDS011;55747;51.998;4.466;2022-10-16T09:53:53;10.35;;;1.90;;
68757;SDS011;55747;51.998;4.466;2022-10-16T09:56:25;11.18;;;2.08;;
68757;SDS011;55747;51.998;4.466;2022-10-16T09:58:59;9.43;;;2.00;;
68757;SDS011;55747;51.998;4.466;2022-10-16T10:01:36;10.73;;;2.05;;
68757;SDS011;55747;51.998;4.466;2022-10-16T10:04:03;8.40;;;1.88;;
68757;SDS011;55747;51.998;4.466;2022-10-16T10:06:33;12.30;;;1.60;;
68757;SDS011;55747;51.998;4.466;2022-10-16T10:09:06;9.88;;;1.90;;
68757;SDS011;55747;51.998;4.466;2022-10-16T10:11:47;8.32;;;1.88;;
68757;SDS011;55747;51.998;4.466;2022-10-16T10:14:21;14.57;;;2.15;;
68757;SDS011;55747;51.998;4.466;2022-10-16T10:16:49;9.88;;;2.00;;
68757;SDS011;55747;51.998;4.466;2022-10-16T10:19:21;13.73;;;2.00;;
68757;SDS011;55747;51.998;4.466;2022-10-16T10:21:48;9.52;;;1.98;;
68757;SDS011;55747;51.998;4.466;2022-10-16T10:24:18;11.57;;;2.30;;
68757;SDS011;55747;51.998;4.466;2022-10-16T10:26:56;13.18;;;2.15;;
68757;SDS011;55747;51.998;4.466;2022-10-16T10:32:38;10.07;;;2.00;;
68757;SDS011;55747;51.998;4.466;2022-10-16T10:35:32;8.27;;;2.08;;
68757;SDS011;55747;51.998;4.466;2022-10-16T10:38:30;7.15;;;1.63;;
68757;SDS011;55747;51.998;4.466;2022-10-16T10:46:55;11.65;;;2.05;;
68757;SDS011;55747;51.998;4.466;2022-10-16T11:03:14;9.98;;;1.88;;
68757;SDS011;55747;51.998;4.466;2022-10-16T11:06:14;10.88;;;1.83;;
68757;SDS011;55747;51.998;4.466;2022-10-16T11:08:53;10.68;;;2.00;;
68757;SDS011;55747;51.998;4.466;2022-10-16T11:11:41;9.23;;;2.30;;
68757;SDS011;55747;51.998;4.466;2022-10-16T11:16:38;8.83;;;1.77;;
68757;SDS011;55747;51.998;4.466;2022-10-16T11:19:42;9.95;;;1.80;;
68757;SDS011;55747;51.998;4.466;2022-10-16T11:22:24;9.15;;;1.75;;
68757;SDS011;55747;51.998;4.466;2022-10-16T11:27:51;12.80;;;2.33;;
68757;SDS011;55747;51.998;4.466;2022-10-16T11:30:23;12.02;;;2.20;;
68757;SDS011;55747;51.998;4.466;2022-10-16T11:33:00;9.70;;;1.90;;
68757;SDS011;55747;51.998;4.466;2022-10-16T11:38:10;8.40;;;1.63;;
68757;SDS011;55747;51.998;4.466;2022-10-16T11:40:41;12.30;;;1.90;;
68757;SDS011;55747;51.998;4.466;2022-10-16T11:43:13;9.52;;;1.73;;
68757;SDS011;55747;51.998;4.466;2022-10-16T11:45:42;8.73;;;1.52;;
68757;SDS011;55747;51.998;4.466;2022-10-16T11:48:17;10.05;;;1.73;;
68757;SDS011;55747;51.998;4.466;2022-10-16T11:50:57;10.63;;;1.92;;
68757;SDS011;55747;51.998;4.466;2022-10-16T11:53:47;7.85;;;1.80;;
68757;SDS011;55747;51.998;4.466;2022-10-16T11:56:19;10.77;;;2.25;;
68757;SDS011;55747;51.998;4.466;2022-10-16T12:06:51;10.30;;;2.03;;
68757;SDS011;55747;51.998;4.466;2022-10-16T12:09:30;9.63;;;1.88;;
68757;SDS011;55747;51.998;4.466;2022-10-16T12:11:57;5.78;;;1.60;;
68757;SDS011;55747;51.998;4.466;2022-10-16T12:17:03;9.93;;;1.80;;
68757;SDS011;55747;51.998;4.466;2022-10-16T12:19:57;10.93;;;1.92;;
68757;SDS011;55747;51.998;4.466;2022-10-16T12:22:41;13.38;;;1.90;;
68757;SDS011;55747;51.998;4.466;2022-10-16T12:30:39;10.88;;;2.00;;
68757;SDS011;55747;51.998;4.466;2022-10-16T12:33:17;8.18;;;1.73;;
68757;SDS011;55747;51.998;4.466;2022-10-16T12:35:47;10.40;;;1.83;;
68757;SDS011;55747;51.998;4.466;2022-10-16T12:38:17;7.57;;;1.67;;
68757;SDS011;55747;51.998;4.466;2022-10-16T12:40:57;11.88;;;1.95;;
68757;SDS011;55747;51.998;4.466;2022-10-16T12:43:44;10.50;;;1.63;;
68757;SDS011;55747;51.998;4.466;2022-10-16T12:48:40;11.53;;;1.80;;
68757;SDS011;55747;51.998;4.466;2022-10-16T12:59:22;11.13;;;1.92;;
68757;SDS011;55747;51.998;4.466;2022-10-16T13:10:26;10.67;;;1.83;;
68757;SDS011;55747;51.998;4.466;2022-10-16T13:16:27;9.15;;;1.65;;
68757;SDS011;55747;51.998;4.466;2022-10-16T13:19:11;11.55;;;1.88;;
68757;SDS011;55747;51.998;4.466;2022-10-16T13:30:11;9.23;;;2.00;;
68757;SDS011;55747;51.998;4.466;2022-10-16T13:32:40;8.02;;;1.67;;
68757;SDS011;55747;51.998;4.466;2022-10-16T13:35:24;14.82;;;1.73;;
68757;SDS011;55747;51.998;4.466;2022-10-16T13:38:02;7.03;;;1.65;;
68757;SDS011;55747;51.998;4.466;2022-10-16T13:40:28;8.90;;;1.65;;
68757;SDS011;55747;51.998;4.466;2022-10-16T13:42:54;12.88;;;2.03;;
68757;SDS011;55747;51.998;4.466;2022-10-16T13:45:25;10.10;;;2.03;;
68757;SDS011;55747;51.998;4.466;2022-10-16T13:48:04;8.15;;;1.75;;
68757;SDS011;55747;51.998;4.466;2022-10-16T13:50:31;10.10;;;2.00;;
68757;SDS011;55747;51.998;4.466;2022-10-16T13:53:30;10.50;;;1.98;;
68757;SDS011;55747;51.998;4.466;2022-10-16T13:55:51;9.75;;;1.60;;
68757;SDS011;55747;51.998;4.466;2022-10-16T13:58:25;9.88;;;1.90;;
68757;SDS011;55747;51.998;4.466;2022-10-16T14:01:01;8.85;;;1.70;;
68757;SDS011;55747;51.998;4.466;2022-10-16T14:03:30;12.07;;;1.92;;
68757;SDS011;55747;51.998;4.466;2022-10-16T14:05:59;10.52;;;1.88;;
68757;SDS011;55747;51.998;4.466;2022-10-16T14:08:28;12.60;;;1.77;;
68757;SDS011;55747;51.998;4.466;2022-10-16T14:10:57;16.13;;;2.42;;
68757;SDS011;55747;51.998;4.466;2022-10-16T14:13:28;13.23;;;2.33;;
68757;SDS011;55747;51.998;4.466;2022-10-16T14:16:16;10.43;;;1.92;;
68757;SDS011;55747;51.998;4.466;2022-10-16T14:18:58;16.15;;;2.10;;
68757;SDS011;55747;51.998;4.466;2022-10-16T14:21:54;9.82;;;1.65;;
68757;SDS011;55747;51.998;4.466;2022-10-16T14:24:36;11.82;;;2.33;;
68757;SDS011;55747;51.998;4.466;2022-10-16T14:33:36;9.27;;;1.73;;
68757;SDS011;55747;51.998;4.466;2022-10-16T14:36:05;10.23;;;2.15;;
68757;SDS011;55747;51.998;4.466;2022-10-16T14:38:31;10.18;;;1.80;;
68757;SDS011;55747;51.998;4.466;2022-10-16T14:41:00;12.05;;;2.10;;
68757;SDS011;55747;51.998;4.466;2022-10-16T14:43:36;12.93;;;2.28;;
68757;SDS011;55747;51.998;4.466;2022-10-16T14:46:12;9.77;;;2.00;;
68757;SDS011;55747;51.998;4.466;2022-10-16T14:48:55;10.95;;;2.10;;
68757;SDS011;55747;51.998;4.466;2022-10-16T14:51:42;13.88;;;1.90;;
68757;SDS011;55747;51.998;4.466;2022-10-16T14:54:21;9.43;;;1.83;;
68757;SDS011;55747;51.998;4.466;2022-10-16T14:59:16;10.52;;;2.17;;
68757;SDS011;55747;51.998;4.466;2022-10-16T15:01:45;10.35;;;1.90;;
68757;SDS011;55747;51.998;4.466;2022-10-16T15:04:12;12.32;;;2.25;;
68757;SDS011;55747;51.998;4.466;2022-10-16T15:41:12;12.55;;;2.35;;
68757;SDS011;55747;51.998;4.466;2022-10-16T15:43:37;11.17;;;2.20;;
68757;SDS011;55747;51.998;4.466;2022-10-16T15:46:06;9.02;;;2.05;;
68757;SDS011;55747;51.998;4.466;2022-10-16T15:48:35;11.07;;;2.08;;
68757;SDS011;55747;51.998;4.466;2022-10-16T15:51:01;14.13;;;1.85;;
68757;SDS011;55747;51.998;4.466;2022-10-16T15:53:30;14.48;;;2.60;;
68757;SDS011;55747;51.998;4.466;2022-10-16T15:55:56;12.05;;;2.22;;
68757;SDS011;55747;51.998;4.466;2022-10-16T15:58:21;14.63;;;2.58;;
68757;SDS011;55747;51.998;4.466;2022-10-16T16:00:53;8.40;;;1.90;;
68757;SDS011;55747;51.998;4.466;2022-10-16T16:03:20;10.93;;;2.60;;
68757;SDS011;55747;51.998;4.466;2022-10-16T16:05:45;15.37;;;2.60;;
68757;SDS011;55747;51.998;4.466;2022-10-16T16:08:11;14.15;;;2.80;;
68757;SDS011;55747;51.998;4.466;2022-10-16T16:10:36;13.13;;;2.60;;
68757;SDS011;55747;51.998;4.466;2022-10-16T16:13:01;15.00;;;2.77;;
68757;SDS011;55747;51.998;4.466;2022-10-16T16:15:26;15.45;;;5.18;;
68757;SDS011;55747;51.998;4.466;2022-10-16T16:17:52;13.23;;;3.47;;
68757;SDS011;55747;51.998;4.466;2022-10-16T16:20:17;11.88;;;3.42;;
68757;SDS011;55747;51.998;4.466;2022-10-16T16:22:43;15.20;;;3.50;;
68757;SDS011;55747;51.998;4.466;2022-10-16T16:25:08;16.10;;;3.80;;
68757;SDS011;55747;51.998;4.466;2022-10-16T16:27:34;14.60;;;3.63;;
68757;SDS011;55747;51.998;4.466;2022-10-16T16:30:02;14.55;;;3.60;;
68757;SDS011;55747;51.998;4.466;2022-10-16T16:32:37;10.52;;;3.28;;
68757;SDS011;55747;51.998;4.466;2022-10-16T17:39:53;14.48;;;3.58;;
68757;SDS011;55747;51.998;4.466;2022-10-16T17:42:18;16.13;;;3.40;;
68757;SDS011;55747;51.998;4.466;2022-10-16T17:44:43;13.35;;;3.35;;
68757;SDS011;55747;51.998;4.466;2022-10-16T17:47:09;15.15;;;2.95;;
68757;SDS011;55747;51.998;4.466;2022-10-16T17:49:57;10.57;;;3.22;;
68757;SDS011;55747;51.998;4.466;2022-10-16T17:52:31;16.70;;;3.33;;
68757;SDS011;55747;51.998;4.466;2022-10-16T17:54:59;14.48;;;3.50;;
68757;SDS011;55747;51.998;4.466;2022-10-16T17:57:37;15.13;;;3.30;;
68757;SDS011;55747;51.998;4.466;2022-10-16T18:00:41;10.98;;;3.13;;
68757;SDS011;55747;51.998;4.466;2022-10-16T18:06:36;13.75;;;2.90;;
68757;SDS011;55747;51.998;4.466;2022-10-16T18:09:41;17.38;;;3.38;;
68757;SDS011;55747;51.998;4.466;2022-10-16T18:12:15;11.88;;;3.40;;
68757;SDS011;55747;51.998;4.466;2022-10-16T18:14:43;16.63;;;3.45;;
68757;SDS011;55747;51.998;4.466;2022-10-16T18:17:09;18.58;;;3.60;;
68757;SDS011;55747;51.998;4.466;2022-10-16T18:19:40;12.18;;;3.35;;
68757;SDS011;55747;51.998;4.466;2022-10-16T18:22:28;12.02;;;2.90;;
68757;SDS011;55747;51.998;4.466;2022-10-16T18:25:15;11.50;;;3.23;;
68757;SDS011;55747;51.998;4.466;2022-10-16T18:28:16;9.73;;;3.28;;
68757;SDS011;55747;51.998;4.466;2022-10-16T18:31:13;12.55;;;3.40;;
68757;SDS011;55747;51.998;4.466;2022-10-16T18:33:59;13.90;;;3.58;;
68757;SDS011;55747;51.998;4.466;2022-10-16T18:39:45;11.10;;;3.28;;
68757;SDS011;55747;51.998;4.466;2022-10-16T18:42:19;15.00;;;4.15;;
68757;SDS011;55747;51.998;4.466;2022-10-16T18:44:48;13.23;;;3.90;;
68757;SDS011;55747;51.998;4.466;2022-10-16T18:47:36;19.13;;;3.63;;
68757;SDS011;55747;51.998;4.466;2022-10-16T18:50:15;11.55;;;3.70;;
68757;SDS011;55747;51.998;4.466;2022-10-16T18:52:47;12.93;;;4.05;;
68757;SDS011;55747;51.998;4.466;2022-10-16T18:55:21;20.05;;;5.07;;
68757;SDS011;55747;51.998;4.466;2022-10-16T18:58:01;13.48;;;4.32;;
68757;SDS011;55747;51.998;4.466;2022-10-16T19:00:26;19.65;;;4.78;;
68757;SDS011;55747;51.998;4.466;2022-10-16T19:03:05;15.30;;;5.40;;
68757;SDS011;55747;51.998;4.466;2022-10-16T19:05:32;18.42;;;5.43;;
68757;SDS011;55747;51.998;4.466;2022-10-16T19:08:07;20.23;;;5.47;;
68757;SDS011;55747;51.998;4.466;2022-10-16T19:10:35;20.00;;;6.00;;
68757;SDS011;55747;51.998;4.466;2022-10-16T19:13:10;14.63;;;5.60;;
68757;SDS011;55747;51.998;4.466;2022-10-16T19:15:41;21.55;;;5.50;;
68757;SDS011;55747;51.998;4.466;2022-10-16T19:18:11;18.70;;;6.38;;
68757;SDS011;55747;51.998;4.466;2022-10-16T19:20:42;17.92;;;6.05;;
68757;SDS011;55747;51.998;4.466;2022-10-16T19:23:07;17.85;;;6.30;;
68757;SDS011;55747;51.998;4.466;2022-10-16T19:25:35;12.52;;;5.78;;
68757;SDS011;55747;51.998;4.466;2022-10-16T19:28:07;21.65;;;6.75;;
68757;SDS011;55747;51.998;4.466;2022-10-16T19:31:05;20.85;;;6.53;;
68757;SDS011;55747;51.998;4.466;2022-10-16T19:36:51;18.00;;;6.57;;
68757;SDS011;55747;51.998;4.466;2022-10-16T19:47:07;21.67;;;8.15;;
68757;SDS011;55747;51.998;4.466;2022-10-16T19:54:37;15.30;;;7.25;;
68757;SDS011;55747;51.998;4.466;2022-10-16T19:57:23;15.38;;;7.45;;
68757;SDS011;55747;51.998;4.466;2022-10-16T20:00:04;15.63;;;7.90;;
68757;SDS011;55747;51.998;4.466;2022-10-16T20:02:33;21.40;;;8.07;;
68757;SDS011;55747;51.998;4.466;2022-10-16T20:11:15;16.52;;;7.32;;
68757;SDS011;55747;51.998;4.466;2022-10-16T20:13:50;13.85;;;7.50;;
68757;SDS011;55747;51.998;4.466;2022-10-16T20:16:19;13.77;;;7.03;;
68757;SDS011;55747;51.998;4.466;2022-10-16T20:19:04;20.83;;;7.40;;
68757;SDS011;55747;51.998;4.466;2022-10-16T20:21:33;16.38;;;7.47;;
68757;SDS011;55747;51.998;4.466;2022-10-16T20:24:09;15.57;;;7.50;;
68757;SDS011;55747;51.998;4.466;2022-10-16T20:26:42;16.60;;;7.28;;
68757;SDS011;55747;51.998;4.466;2022-10-16T20:29:16;14.02;;;7.50;;
68757;SDS011;55747;51.998;4.466;2022-10-16T20:31:54;12.73;;;7.55;;
68757;SDS011;55747;51.998;4.466;2022-10-16T20:34:19;14.15;;;6.80;;
68757;SDS011;55747;51.998;4.466;2022-10-16T20:36:56;12.55;;;7.13;;
68757;SDS011;55747;51.998;4.466;2022-10-16T20:39:21;14.27;;;7.47;;
68757;SDS011;55747;51.998;4.466;2022-10-16T20:41:49;13.15;;;6.85;;
68757;SDS011;55747;51.998;4.466;2022-10-16T20:44:20;11.07;;;6.80;;
68757;SDS011;55747;51.998;4.466;2022-10-16T20:46:47;13.90;;;7.13;;
68757;SDS011;55747;51.998;4.466;2022-10-16T20:49:13;13.98;;;7.30;;
68757;SDS011;55747;51.998;4.466;2022-10-16T20:51:38;15.95;;;7.47;;
68757;SDS011;55747;51.998;4.466;2022-10-16T20:54:04;13.48;;;7.28;;
68757;SDS011;55747;51.998;4.466;2022-10-16T20:56:31;15.10;;;7.22;;
68757;SDS011;55747;51.998;4.466;2022-10-16T20:58:58;12.30;;;7.32;;
68757;SDS011;55747;51.998;4.466;2022-10-16T21:01:24;13.82;;;7.25;;